createdAt,value
2022-11-08T00:01:39.009Z,13.40
2022-11-08T00:04:08.823Z,13.20
2022-11-08T00:06:54.957Z,13.10
2022-11-08T00:09:41.017Z,13.20
2022-11-08T00:12:27.102Z,13.20
2022-11-08T00:14:57.187Z,13.40
2022-11-08T00:17:27.447Z,13.20
2022-11-08T00:19:56.499Z,13.10
2022-11-08T00:22:25.104Z,13.30
2022-11-08T00:24:53.523Z,13.10
2022-11-08T00:27:22.871Z,13.30
2022-11-08T00:29:51.452Z,13.30
2022-11-08T00:32:22.208Z,13.30
2022-11-08T00:34:51.603Z,13.30
2022-11-08T00:37:20.919Z,13.30
2022-11-08T00:39:49.642Z,13.30
2022-11-08T00:42:18.297Z,13.30
2022-11-08T00:44:46.815Z,13.30
2022-11-08T00:47:15.518Z,13.30
2022-11-08T00:49:45.447Z,13.30
2022-11-08T00:52:13.899Z,13.10
2022-11-08T00:54:42.488Z,13.20
2022-11-08T00:57:10.977Z,13.00
2022-11-08T00:59:39.424Z,13.00
2022-11-08T01:02:08.149Z,12.90
2022-11-08T01:04:36.639Z,12.80
2022-11-08T01:07:06.523Z,12.90
2022-11-08T01:09:35.468Z,12.70
2022-11-08T01:12:03.936Z,12.70
2022-11-08T01:14:32.540Z,12.70
2022-11-08T01:17:01.106Z,12.70
2022-11-08T01:19:29.592Z,12.60
2022-11-08T01:21:58.065Z,12.60
2022-11-08T01:24:28.278Z,12.60
2022-11-08T01:26:56.780Z,12.60
2022-11-08T01:29:25.438Z,12.70
2022-11-08T01:31:53.934Z,12.50
2022-11-08T01:34:22.412Z,12.40
2022-11-08T01:36:50.948Z,12.40
2022-11-08T01:39:19.618Z,12.30
2022-11-08T01:41:49.885Z,12.30
2022-11-08T01:44:18.734Z,12.30
2022-11-08T01:46:47.607Z,12.20
2022-11-08T01:49:34.140Z,12.10
2022-11-08T01:52:15.055Z,12.10
2022-11-08T01:54:46.301Z,12.00
2022-11-08T01:57:18.507Z,12.00
2022-11-08T01:59:49.145Z,11.80
2022-11-08T02:02:17.749Z,11.90
2022-11-08T02:04:46.343Z,11.70
2022-11-08T02:07:15.400Z,11.70
2022-11-08T02:09:44.905Z,11.70
2022-11-08T02:12:13.919Z,11.60
2022-11-08T02:14:44.383Z,11.60
2022-11-08T02:17:12.840Z,11.60
2022-11-08T02:19:43.366Z,11.50
2022-11-08T02:22:18.406Z,11.50
2022-11-08T02:24:49.419Z,11.50
2022-11-08T02:27:17.909Z,11.40
2022-11-08T02:29:46.345Z,11.40
2022-11-08T02:32:14.875Z,11.40
2022-11-08T02:34:45.560Z,11.30
2022-11-08T02:37:15.627Z,11.40
2022-11-08T02:39:44.424Z,11.30
2022-11-08T02:42:16.123Z,11.30
2022-11-08T02:44:44.671Z,11.30
2022-11-08T02:47:13.238Z,11.30
2022-11-08T02:49:41.831Z,11.30
2022-11-08T02:52:10.457Z,11.20
2022-11-08T02:54:38.984Z,11.20
2022-11-08T02:57:07.473Z,11.20
2022-11-08T02:59:37.620Z,11.20
2022-11-08T03:02:06.363Z,11.20
2022-11-08T03:04:35.132Z,11.20
2022-11-08T03:07:03.588Z,11.20
2022-11-08T03:09:32.293Z,11.20
2022-11-08T03:12:00.784Z,11.10
2022-11-08T03:14:29.302Z,11.10
2022-11-08T03:16:59.342Z,11.10
2022-11-08T03:19:27.887Z,11.50
2022-11-08T03:21:56.324Z,11.00
2022-11-08T03:24:24.805Z,11.00
2022-11-08T03:26:53.233Z,11.00
2022-11-08T03:29:21.705Z,10.90
2022-11-08T03:31:50.326Z,11.00
2022-11-08T03:34:20.220Z,10.90
2022-11-08T03:36:48.813Z,11.00
2022-11-08T03:39:17.819Z,10.90
2022-11-08T03:41:46.331Z,11.70
2022-11-08T03:44:14.873Z,10.90
2022-11-08T03:46:43.334Z,10.80
2022-11-08T03:49:11.834Z,10.80
2022-11-08T03:51:41.852Z,10.80
2022-11-08T03:54:11.312Z,10.70
2022-11-08T03:56:39.916Z,10.70
2022-11-08T03:59:08.435Z,10.80
2022-11-08T04:01:37.099Z,10.60
2022-11-08T04:04:05.808Z,10.60
2022-11-08T04:06:34.401Z,10.60
2022-11-08T04:09:04.501Z,10.60
2022-11-08T04:11:50.292Z,10.60
2022-11-08T04:14:54.516Z,10.60
2022-11-08T04:17:43.668Z,10.60
2022-11-08T04:20:29.816Z,10.60
2022-11-08T04:22:58.417Z,10.60
2022-11-08T04:25:33.953Z,10.60
2022-11-08T04:28:03.689Z,10.60
2022-11-08T04:30:32.583Z,10.50
2022-11-08T04:33:01.643Z,10.40
2022-11-08T04:35:30.508Z,10.40
2022-11-08T04:37:59.614Z,10.30
2022-11-08T04:40:29.782Z,10.10
2022-11-08T04:42:58.414Z,10.00
2022-11-08T04:45:26.840Z,10.00
2022-11-08T04:47:55.362Z,9.90
2022-11-08T04:50:23.923Z,9.80
2022-11-08T04:52:52.959Z,9.80
2022-11-08T04:55:21.768Z,9.70
2022-11-08T04:57:51.802Z,9.70
2022-11-08T05:00:20.711Z,9.70
2022-11-08T05:02:49.868Z,9.70
2022-11-08T05:05:18.992Z,9.80
2022-11-08T05:07:48.126Z,9.80
2022-11-08T05:10:16.854Z,9.80
2022-11-08T05:12:45.375Z,9.70
2022-11-08T05:15:15.314Z,9.90
2022-11-08T05:17:43.946Z,9.90
2022-11-08T05:20:29.947Z,9.90
2022-11-08T05:23:18.994Z,9.90
2022-11-08T05:25:47.694Z,9.90
2022-11-08T05:28:16.868Z,9.90
2022-11-08T05:30:53.047Z,10.00
2022-11-08T05:33:40.285Z,10.00
2022-11-08T05:36:10.446Z,10.10
2022-11-08T05:38:39.438Z,10.10
2022-11-08T05:41:08.589Z,10.20
2022-11-08T05:43:37.186Z,10.20
2022-11-08T05:46:07.418Z,10.20
2022-11-08T05:48:36.354Z,10.30
2022-11-08T05:51:04.939Z,10.40
2022-11-08T05:53:33.765Z,10.40
2022-11-08T05:56:03.185Z,10.50
2022-11-08T05:58:32.673Z,10.60
2022-11-08T06:01:01.715Z,10.60
2022-11-08T06:03:31.872Z,10.60
2022-11-08T06:06:03.104Z,10.60
2022-11-08T06:08:33.996Z,10.60
2022-11-08T06:11:22.807Z,10.60
2022-11-08T06:13:51.449Z,10.70
2022-11-08T06:16:20.618Z,10.70
2022-11-08T06:18:50.890Z,10.80
2022-11-08T06:21:20.103Z,10.80
2022-11-08T06:23:49.196Z,11.00
2022-11-08T06:26:19.740Z,11.00
2022-11-08T06:28:49.056Z,11.20
2022-11-08T06:31:41.898Z,11.30
2022-11-08T06:34:13.085Z,11.40
2022-11-08T06:36:41.734Z,11.50
2022-11-08T06:39:10.587Z,11.60
2022-11-08T06:41:39.369Z,11.70
2022-11-08T06:44:08.042Z,11.80
2022-11-08T06:46:37.344Z,11.90
2022-11-08T06:49:06.021Z,12.10
2022-11-08T06:51:36.184Z,12.20
2022-11-08T06:54:08.730Z,12.30
2022-11-08T06:56:37.938Z,12.40
2022-11-08T06:59:06.486Z,12.60
2022-11-08T07:01:35.200Z,12.70
2022-11-08T07:04:04.203Z,12.80
2022-11-08T07:06:33.114Z,12.90
2022-11-08T07:09:02.993Z,13.10
2022-11-08T07:11:31.869Z,13.20
2022-11-08T07:14:00.298Z,13.40
2022-11-08T07:16:28.735Z,13.50
2022-11-08T07:18:57.474Z,13.80
2022-11-08T07:21:26.043Z,14.10
2022-11-08T07:23:54.491Z,14.40
2022-11-08T07:26:24.511Z,14.40
2022-11-08T07:28:52.971Z,14.50
2022-11-08T07:31:21.888Z,14.50
2022-11-08T07:33:50.447Z,14.60
2022-11-08T07:36:19.234Z,14.70
2022-11-08T07:38:47.724Z,14.70
2022-11-08T07:41:16.454Z,14.90
2022-11-08T07:43:46.568Z,15.00
2022-11-08T07:46:18.482Z,15.00
2022-11-08T07:48:47.047Z,15.10
2022-11-08T07:51:16.356Z,15.30
2022-11-08T07:53:45.094Z,15.30
2022-11-08T07:56:14.120Z,15.40
2022-11-08T07:58:42.618Z,15.50
2022-11-08T08:01:12.696Z,15.60
2022-11-08T08:03:41.304Z,15.70
2022-11-08T08:06:09.757Z,15.80
2022-11-08T08:08:38.415Z,15.90
2022-11-08T08:11:07.110Z,16.00
2022-11-08T08:13:35.580Z,16.10
2022-11-08T08:16:04.220Z,16.30
2022-11-08T08:18:34.211Z,16.40
2022-11-08T08:21:02.721Z,16.50
2022-11-08T08:23:31.136Z,16.70
2022-11-08T08:25:59.706Z,16.80
2022-11-08T08:28:28.379Z,17.00
2022-11-08T08:30:56.911Z,17.10
2022-11-08T08:33:29.648Z,17.30
2022-11-08T08:36:02.160Z,18.10
2022-11-08T08:38:31.367Z,19.80
2022-11-08T08:41:00.225Z,21.30
2022-11-08T08:43:29.073Z,22.60
2022-11-08T08:46:04.372Z,23.60
2022-11-08T08:48:33.961Z,24.30
2022-11-08T08:51:03.907Z,24.90
2022-11-08T08:53:32.600Z,25.50
2022-11-08T08:56:02.624Z,26.00
2022-11-08T08:58:31.305Z,26.70
2022-11-08T09:03:50.162Z,27.50
2022-11-08T09:06:20.183Z,27.80
2022-11-08T09:08:49.871Z,27.90
2022-11-08T09:11:18.354Z,28.10
2022-11-08T09:13:46.831Z,28.20
2022-11-08T09:16:15.668Z,28.40
2022-11-08T09:18:44.144Z,28.50
2022-11-08T09:21:12.897Z,28.70
2022-11-08T09:23:43.125Z,28.90
2022-11-08T09:26:30.335Z,29.20
2022-11-08T09:28:58.855Z,29.40
2022-11-08T09:31:32.164Z,30.00
2022-11-08T09:36:36.524Z,30.80
2022-11-08T09:39:06.891Z,31.20
2022-11-08T09:41:55.615Z,31.40
2022-11-08T09:44:41.447Z,31.30
2022-11-08T09:47:14.827Z,31.20
2022-11-08T09:49:47.225Z,31.30
2022-11-08T09:52:22.432Z,31.50
2022-11-08T09:54:53.513Z,31.60
2022-11-08T09:57:25.953Z,31.50
2022-11-08T09:59:58.255Z,31.40
2022-11-08T10:02:33.881Z,31.20
2022-11-08T10:05:06.383Z,31.00
2022-11-08T10:07:45.833Z,30.90
2022-11-08T10:10:31.606Z,30.80
2022-11-08T10:13:10.923Z,30.80
2022-11-08T10:15:45.160Z,30.70
2022-11-08T10:18:24.484Z,30.80
2022-11-08T10:21:00.300Z,30.90
2022-11-08T10:23:32.886Z,30.90
2022-11-08T10:26:05.884Z,30.90
2022-11-08T10:28:37.528Z,31.10
2022-11-08T10:31:06.270Z,31.30
2022-11-08T10:33:36.726Z,31.30
2022-11-08T10:36:08.359Z,31.30
2022-11-08T10:38:38.395Z,31.30
2022-11-08T10:41:12.241Z,31.00
2022-11-08T10:43:43.149Z,30.60
2022-11-08T10:46:15.480Z,30.10
2022-11-08T10:49:10.216Z,29.90
2022-11-08T10:51:38.947Z,29.10
2022-11-08T10:54:07.657Z,28.30
2022-11-08T10:56:55.218Z,27.40
2022-11-08T10:59:30.911Z,26.50
2022-11-08T11:01:59.682Z,25.80
2022-11-08T11:04:28.898Z,25.10
2022-11-08T11:07:02.357Z,24.70
2022-11-08T11:09:49.579Z,24.20
2022-11-08T11:12:19.579Z,23.80
2022-11-08T11:14:48.256Z,23.60
2022-11-08T11:17:18.178Z,23.40
2022-11-08T11:19:54.346Z,23.30
2022-11-08T11:22:26.782Z,23.10
2022-11-08T11:24:55.926Z,23.10
2022-11-08T11:27:30.040Z,22.90
2022-11-08T11:30:13.239Z,22.80
2022-11-08T11:32:43.455Z,22.70
2022-11-08T11:35:15.266Z,22.60
2022-11-08T11:37:45.098Z,22.50
2022-11-08T11:40:17.446Z,22.40
2022-11-08T11:42:52.828Z,22.30
2022-11-08T11:45:23.272Z,22.30
2022-11-08T11:47:53.752Z,22.20
2022-11-08T11:50:35.036Z,22.10
2022-11-08T11:53:07.133Z,22.00
2022-11-08T11:55:49.185Z,21.90
2022-11-08T11:58:32.886Z,21.90
2022-11-08T12:01:10.469Z,21.80
2022-11-08T12:03:55.002Z,21.70
2022-11-08T12:06:35.710Z,21.60
2022-11-08T12:09:16.020Z,21.50
2022-11-08T12:11:54.767Z,21.40
2022-11-08T12:14:46.222Z,21.30
2022-11-08T12:17:37.293Z,21.10
2022-11-08T12:20:27.755Z,21.10
2022-11-08T12:23:19.025Z,21.00
2022-11-08T12:25:54.449Z,20.90
2022-11-08T12:28:42.182Z,20.80
2022-11-08T12:31:26.678Z,20.70
2022-11-08T12:34:21.608Z,20.60
2022-11-08T12:37:03.245Z,20.50
2022-11-08T12:39:37.543Z,20.50
2022-11-08T12:42:22.830Z,20.50
2022-11-08T12:45:17.772Z,20.40
2022-11-08T12:47:55.332Z,20.40
2022-11-08T12:50:30.391Z,20.30
2022-11-08T12:53:24.161Z,20.30
2022-11-08T12:55:55.984Z,20.20
2022-11-08T12:58:34.540Z,20.10
2022-11-08T13:01:23.522Z,20.10
2022-11-08T13:04:15.856Z,20.00
2022-11-08T13:06:50.442Z,19.90
2022-11-08T13:09:30.009Z,19.80
2022-11-08T13:12:08.493Z,19.60
2022-11-08T13:14:41.327Z,19.50
2022-11-08T13:17:20.632Z,19.40
2022-11-08T13:20:05.349Z,19.30
2022-11-08T13:23:00.528Z,19.20
2022-11-08T13:25:50.504Z,19.20
2022-11-08T13:28:40.675Z,19.10
2022-11-08T13:31:31.636Z,19.00
2022-11-08T13:34:24.017Z,18.90
2022-11-08T13:37:09.874Z,18.90
2022-11-08T13:40:01.843Z,18.80
2022-11-08T13:42:40.629Z,18.80
2022-11-08T13:45:25.815Z,18.80
2022-11-08T13:48:01.998Z,18.80
2022-11-08T13:50:51.889Z,18.80
2022-11-08T13:53:54.755Z,18.80
2022-11-08T13:56:50.350Z,18.70
2022-11-08T13:59:57.805Z,18.70
2022-11-08T14:02:40.358Z,18.70
2022-11-08T14:05:32.952Z,18.60
2022-11-08T14:08:24.595Z,18.60
2022-11-08T14:11:28.677Z,18.50
2022-11-08T14:14:31.173Z,18.50
2022-11-08T14:17:24.103Z,18.40
2022-11-08T14:19:53.876Z,18.40
2022-11-08T14:22:25.223Z,18.30
2022-11-08T14:24:55.754Z,18.20
2022-11-08T14:27:35.697Z,18.20
2022-11-08T14:30:14.949Z,18.10
2022-11-08T14:33:18.390Z,18.00
2022-11-08T14:35:56.119Z,17.90
2022-11-08T14:38:25.469Z,17.80
2022-11-08T14:40:57.184Z,17.80
2022-11-08T14:43:26.904Z,17.70
2022-11-08T14:45:59.211Z,17.60
2022-11-08T14:48:31.205Z,17.50
2022-11-08T14:51:00.896Z,17.40
2022-11-08T14:53:31.725Z,17.40
2022-11-08T14:56:09.601Z,17.30
2022-11-08T14:58:57.889Z,17.20
2022-11-08T15:01:29.407Z,17.10
2022-11-08T15:04:00.311Z,17.10
2022-11-08T15:06:34.056Z,17.00
2022-11-08T15:09:04.395Z,16.90
2022-11-08T15:11:35.793Z,16.80
2022-11-08T15:14:08.324Z,16.70
2022-11-08T15:16:44.766Z,16.60
2022-11-08T15:19:31.340Z,16.50
2022-11-08T15:22:04.642Z,16.40
2022-11-08T15:24:39.186Z,16.30
2022-11-08T15:27:16.942Z,16.20
2022-11-08T15:30:00.645Z,16.10
2022-11-08T15:32:37.639Z,16.00
2022-11-08T15:35:08.342Z,15.90
2022-11-08T15:37:42.072Z,15.90
2022-11-08T15:40:20.251Z,15.80
2022-11-08T15:42:51.227Z,15.70
2022-11-08T15:45:38.879Z,15.60
2022-11-08T15:48:23.471Z,15.60
2022-11-08T15:50:52.876Z,15.50
2022-11-08T15:53:22.655Z,15.50
2022-11-08T15:55:54.631Z,15.40
2022-11-08T15:58:28.533Z,15.30
2022-11-08T16:00:59.195Z,15.20
2022-11-08T16:03:31.279Z,15.20
2022-11-08T16:06:00.900Z,15.10
2022-11-08T16:08:30.057Z,15.00
2022-11-08T16:11:01.812Z,15.00
2022-11-08T16:13:33.170Z,14.90
2022-11-08T16:16:02.651Z,14.80
2022-11-08T16:18:34.498Z,14.80
2022-11-08T16:21:03.869Z,14.70
2022-11-08T16:23:32.709Z,14.70
2022-11-08T16:26:03.376Z,14.70
2022-11-08T16:28:35.129Z,14.60
2022-11-08T16:31:05.552Z,14.50
2022-11-08T16:33:36.919Z,14.50
2022-11-08T16:36:15.894Z,14.50
2022-11-08T16:38:49.229Z,14.40
2022-11-08T16:41:18.994Z,14.30
2022-11-08T16:43:48.225Z,14.30
2022-11-08T16:46:18.028Z,14.20
2022-11-08T16:48:50.967Z,14.20
2022-11-08T16:51:38.103Z,14.10
2022-11-08T16:54:19.385Z,14.10
2022-11-08T16:56:48.413Z,14.00
2022-11-08T16:59:26.186Z,14.20
2022-11-08T17:01:55.975Z,13.90
2022-11-08T17:04:26.701Z,13.90
2022-11-08T17:06:55.757Z,13.80
2022-11-08T17:09:26.062Z,13.80
2022-11-08T17:11:56.843Z,13.70
2022-11-08T17:14:26.305Z,13.70
2022-11-08T17:16:55.233Z,13.60
2022-11-08T17:19:25.790Z,13.60
2022-11-08T17:21:54.732Z,13.60
2022-11-08T17:24:23.846Z,13.50
2022-11-08T17:26:53.834Z,13.50
2022-11-08T17:29:22.768Z,13.40
2022-11-08T17:31:53.197Z,13.30
2022-11-08T17:34:22.150Z,13.20
2022-11-08T17:36:53.492Z,13.20
2022-11-08T17:39:29.103Z,13.10
2022-11-08T17:42:16.805Z,13.00
2022-11-08T17:44:45.685Z,12.90
2022-11-08T17:47:14.764Z,12.80
2022-11-08T17:49:44.220Z,12.80
2022-11-08T17:52:14.451Z,12.70
2022-11-08T17:54:43.121Z,12.60
2022-11-08T17:57:11.600Z,12.60
2022-11-08T17:59:40.120Z,12.40
2022-11-08T18:02:09.386Z,12.50
2022-11-08T18:04:37.850Z,12.40
2022-11-08T18:07:06.486Z,12.40
2022-11-08T18:09:36.438Z,12.30
2022-11-08T18:12:05.205Z,12.30
2022-11-08T18:14:33.708Z,12.20
2022-11-08T18:17:02.403Z,12.10
2022-11-08T18:19:31.106Z,12.10
2022-11-08T18:22:00.487Z,12.10
2022-11-08T18:24:28.932Z,12.00
2022-11-08T18:26:59.085Z,12.00
2022-11-08T18:29:27.663Z,12.00
2022-11-08T18:31:56.165Z,12.00
2022-11-08T18:34:24.648Z,12.00
2022-11-08T18:36:53.152Z,12.00
2022-11-08T18:39:21.618Z,12.00
2022-11-08T18:41:50.167Z,11.90
2022-11-08T18:44:20.057Z,11.90
2022-11-08T18:46:48.634Z,11.90
2022-11-08T18:49:17.325Z,11.90
2022-11-08T18:51:52.142Z,12.10
2022-11-08T18:54:21.542Z,12.00
2022-11-08T18:56:51.002Z,12.00
2022-11-08T18:59:21.082Z,12.00
2022-11-08T19:01:49.631Z,12.00
2022-11-08T19:04:18.430Z,11.90
2022-11-08T19:06:54.296Z,11.90
2022-11-08T19:09:23.551Z,11.90
2022-11-08T19:11:52.040Z,11.80
2022-11-08T19:14:22.009Z,11.80
2022-11-08T19:16:54.822Z,11.80
2022-11-08T19:19:23.859Z,11.70
2022-11-08T19:21:52.362Z,11.70
2022-11-08T19:24:21.393Z,11.70
2022-11-08T19:26:49.992Z,11.70
2022-11-08T19:29:18.510Z,11.60
2022-11-08T19:31:48.623Z,11.60
2022-11-08T19:34:17.297Z,11.60
2022-11-08T19:36:45.926Z,11.60
2022-11-08T19:39:14.717Z,11.50
2022-11-08T19:41:43.685Z,11.50
2022-11-08T19:44:12.229Z,11.50
2022-11-08T19:46:41.793Z,11.50
2022-11-08T19:49:11.910Z,11.50
2022-11-08T19:51:40.711Z,11.50
2022-11-08T19:54:10.249Z,11.40
2022-11-08T19:59:27.441Z,11.40
2022-11-08T20:01:55.930Z,11.40
2022-11-08T20:04:25.907Z,11.30
2022-11-08T20:06:54.539Z,11.30
2022-11-08T20:09:28.969Z,11.30
2022-11-08T20:11:59.044Z,11.20
2022-11-08T20:14:28.010Z,11.20
2022-11-08T20:16:56.565Z,11.10
2022-11-08T20:19:26.710Z,11.10
2022-11-08T20:21:57.201Z,11.10
2022-11-08T20:24:25.786Z,11.10
2022-11-08T20:26:55.346Z,11.00
2022-11-08T20:29:23.975Z,11.00
2022-11-08T20:31:52.775Z,11.00
2022-11-08T20:34:21.539Z,10.90
2022-11-08T20:36:51.662Z,10.80
2022-11-08T20:39:20.492Z,10.90
2022-11-08T20:41:49.350Z,10.80
2022-11-08T20:44:20.313Z,10.80
2022-11-08T20:46:48.872Z,10.80
2022-11-08T20:49:17.466Z,10.70
2022-11-08T20:51:45.987Z,10.70
2022-11-08T20:54:16.823Z,10.70
2022-11-08T20:56:45.517Z,10.70
2022-11-08T20:59:15.145Z,10.70
2022-11-08T21:01:43.633Z,10.60
2022-11-08T21:04:12.280Z,10.60
2022-11-08T21:06:40.819Z,10.60
2022-11-08T21:09:34.661Z,10.60
2022-11-08T21:12:00.074Z,10.60
2022-11-08T21:14:28.957Z,10.50
2022-11-08T21:19:48.271Z,10.50
2022-11-08T21:22:16.880Z,10.50
2022-11-08T21:24:46.626Z,10.50
2022-11-08T21:27:17.178Z,10.30
2022-11-08T21:29:45.881Z,10.40
2022-11-08T21:32:14.489Z,10.40
2022-11-08T21:34:46.381Z,10.40
2022-11-08T21:37:15.907Z,10.30
2022-11-08T21:40:04.088Z,10.30
2022-11-08T21:42:39.250Z,10.30
2022-11-08T21:45:09.875Z,10.30
2022-11-08T21:47:38.458Z,10.20
2022-11-08T21:50:07.493Z,10.20
2022-11-08T21:52:54.792Z,10.20
2022-11-08T21:55:23.498Z,10.20
2022-11-08T21:57:54.364Z,10.10
2022-11-08T22:00:24.187Z,10.10
2022-11-08T22:02:53.311Z,10.10
2022-11-08T22:05:22.299Z,10.10
2022-11-08T22:07:50.965Z,10.00
2022-11-08T22:10:19.681Z,10.00
2022-11-08T22:12:48.923Z,10.00
2022-11-08T22:15:19.259Z,10.00
2022-11-08T22:18:14.423Z,10.00
2022-11-08T22:20:36.893Z,10.00
2022-11-08T22:23:08.922Z,9.90
2022-11-08T22:25:38.040Z,9.90
2022-11-08T22:28:06.862Z,9.90
2022-11-08T22:30:37.230Z,9.80
2022-11-08T22:33:05.939Z,9.70
2022-11-08T22:35:34.473Z,9.50
2022-11-08T22:38:03.135Z,9.40
2022-11-08T22:40:31.736Z,9.30
2022-11-08T22:43:00.515Z,9.00
2022-11-08T22:45:29.094Z,9.00
2022-11-08T22:47:59.244Z,8.90
2022-11-08T22:50:28.046Z,8.80
2022-11-08T22:52:56.800Z,8.70
2022-11-08T22:55:26.942Z,8.70
2022-11-08T22:57:55.757Z,8.70
2022-11-08T23:00:24.331Z,8.50
2022-11-08T23:02:52.969Z,8.50
2022-11-08T23:05:22.904Z,8.40
2022-11-08T23:07:51.538Z,8.40
2022-11-08T23:10:20.394Z,8.30
2022-11-08T23:13:06.430Z,8.30
2022-11-08T23:15:48.822Z,8.30
2022-11-08T23:18:17.491Z,8.30
2022-11-08T23:21:04.545Z,8.30
2022-11-08T23:23:50.567Z,8.30
2022-11-08T23:26:39.431Z,8.30
2022-11-08T23:29:25.595Z,8.30
2022-11-08T23:31:54.373Z,8.30
2022-11-08T23:34:22.856Z,8.20
2022-11-08T23:36:52.993Z,8.10
2022-11-08T23:39:21.775Z,8.10
2022-11-08T23:42:07.704Z,8.10
2022-11-08T23:44:36.308Z,8.00
2022-11-08T23:47:04.848Z,7.90
2022-11-08T23:49:33.522Z,7.90
2022-11-08T23:52:03.526Z,7.80
2022-11-08T23:54:32.170Z,7.80
2022-11-08T23:57:00.863Z,7.80
2022-11-08T23:59:29.264Z,7.70
